EZY94QE EGCC-EGNS
Flight info
| Callsign | EZY94QE |
|---|---|
| Flight time | 0h 30m |
| Altitude | 18000 |
| Route | ASMIM L975 WAL M146 LUSOD DCT IOM |
| Aircraft | A319/M-SDE2E3FGIJ1RWXYZ/LB1 |
Departure
| Time | 2026-04-23 23:16 |
|---|---|
| Airport | Manchester Airport (EGCC) |
Arrival
| Time | 2026-04-23 23:46 |
|---|---|
| Airport | Isle of Man Airport (EGNS) |
| Time | Latitude | Longitude | Altitude | Speed | Heading |
|---|---|---|---|---|---|
| 2026-04-23 22:33 | 53.36833 | -2.28878 | 248 ft | 0 kts | 135° |
| 2026-04-23 23:01 | 53.36839 | -2.28888 | 247 ft | 4 kts | 138° |
| 2026-04-23 23:02 | 53.36860 | -2.28913 | 247 ft | 4 kts | 165° |
| 2026-04-23 23:02 | 53.36883 | -2.28911 | 247 ft | 4 kts | 219° |
| 2026-04-23 23:02 | 53.36890 | -2.28901 | 247 ft | 0 kts | 225° |
| 2026-04-23 23:04 | 53.36903 | -2.28888 | 247 ft | 3 kts | 176° |
| 2026-04-23 23:04 | 53.36920 | -2.28890 | 247 ft | 3 kts | 176° |
| 2026-04-23 23:05 | 53.36938 | -2.28892 | 247 ft | 3 kts | 176° |
| 2026-04-23 23:05 | 53.36954 | -2.28893 | 247 ft | 1 kts | 211° |
| 2026-04-23 23:05 | 53.36955 | -2.28892 | 247 ft | 0 kts | 211° |
| 2026-04-23 23:07 | 53.36949 | -2.28898 | 247 ft | 3 kts | 213° |
| 2026-04-23 23:07 | 53.36919 | -2.28947 | 247 ft | 8 kts | 225° |
| 2026-04-23 23:07 | 53.36874 | -2.29022 | 247 ft | 9 kts | 224° |
| 2026-04-23 23:07 | 53.36827 | -2.29074 | 247 ft | 7 kts | 201° |
| 2026-04-23 23:08 | 53.36784 | -2.29103 | 247 ft | 6 kts | 202° |
| 2026-04-23 23:08 | 53.36744 | -2.29110 | 247 ft | 6 kts | 165° |
| 2026-04-23 23:08 | 53.36708 | -2.29062 | 247 ft | 8 kts | 135° |
| 2026-04-23 23:08 | 53.36658 | -2.28980 | 247 ft | 12 kts | 134° |
| 2026-04-23 23:09 | 53.36619 | -2.28872 | 247 ft | 11 kts | 126° |
| 2026-04-23 23:09 | 53.36573 | -2.28754 | 247 ft | 13 kts | 123° |
| 2026-04-23 23:09 | 53.36499 | -2.28621 | 247 ft | 18 kts | 135° |
| 2026-04-23 23:09 | 53.36415 | -2.28460 | 247 ft | 19 kts | 118° |
| 2026-04-23 23:10 | 53.36337 | -2.28283 | 247 ft | 19 kts | 134° |
| 2026-04-23 23:10 | 53.36246 | -2.28128 | 247 ft | 18 kts | 135° |
| 2026-04-23 23:10 | 53.36156 | -2.27976 | 247 ft | 19 kts | 135° |
| 2026-04-23 23:10 | 53.36060 | -2.27857 | 247 ft | 16 kts | 160° |
| 2026-04-23 23:11 | 53.35983 | -2.27866 | 247 ft | 12 kts | 147° |
| 2026-04-23 23:11 | 53.35901 | -2.27847 | 247 ft | 13 kts | 186° |
| 2026-04-23 23:11 | 53.35808 | -2.27863 | 247 ft | 14 kts | 185° |
| 2026-04-23 23:11 | 53.35705 | -2.27880 | 247 ft | 16 kts | 186° |
| 2026-04-23 23:12 | 53.35618 | -2.27909 | 246 ft | 9 kts | 216° |
| 2026-04-23 23:12 | 53.35565 | -2.28022 | 240 ft | 16 kts | 230° |
| 2026-04-23 23:12 | 53.35472 | -2.28142 | 238 ft | 18 kts | 200° |
| 2026-04-23 23:12 | 53.35355 | -2.28174 | 238 ft | 16 kts | 192° |
| 2026-04-23 23:13 | 53.35249 | -2.28271 | 234 ft | 19 kts | 220° |
| 2026-04-23 23:13 | 53.35157 | -2.28454 | 232 ft | 22 kts | 231° |
| 2026-04-23 23:13 | 53.35060 | -2.28654 | 233 ft | 22 kts | 230° |
| 2026-04-23 23:13 | 53.34949 | -2.28856 | 229 ft | 25 kts | 226° |
| 2026-04-23 23:14 | 53.34835 | -2.29042 | 218 ft | 23 kts | 210° |
| 2026-04-23 23:14 | 53.34755 | -2.29069 | 217 ft | 11 kts | 179° |
| 2026-04-23 23:14 | 53.34683 | -2.29006 | 221 ft | 12 kts | 138° |
| 2026-04-23 23:14 | 53.34673 | -2.28949 | 218 ft | 4 kts | 53° |
| 2026-04-23 23:15 | 53.34679 | -2.28937 | 223 ft | 0 kts | 51° |
| 2026-04-23 23:15 | 53.34683 | -2.28927 | 223 ft | 11 kts | 51° |
| 2026-04-23 23:15 | 53.34930 | -2.28414 | 238 ft | 102 kts | 51° |
| 2026-04-23 23:15 | 53.35539 | -2.27152 | 268 ft | 172 kts | 52° |
| 2026-04-23 23:16 | 53.36311 | -2.25563 | 1087 ft | 175 kts | 53° |
| 2026-04-23 23:16 | 53.37070 | -2.23997 | 2048 ft | 176 kts | 56° |
| 2026-04-23 23:16 | 53.37880 | -2.22312 | 2549 ft | 196 kts | 55° |
| 2026-04-23 23:16 | 53.38997 | -2.20785 | 3051 ft | 227 kts | 25° |
| 2026-04-23 23:17 | 53.40644 | -2.20764 | 3744 ft | 256 kts | 347° |
| 2026-04-23 23:17 | 53.42177 | -2.22549 | 4355 ft | 284 kts | 308° |
| 2026-04-23 23:17 | 53.42914 | -2.25634 | 5131 ft | 291 kts | 274° |
| 2026-04-23 23:17 | 53.42897 | -2.28941 | 5366 ft | 287 kts | 265° |
| 2026-04-23 23:18 | 53.43299 | -2.32211 | 5431 ft | 292 kts | 295° |
| 2026-04-23 23:18 | 53.44386 | -2.35065 | 5574 ft | 286 kts | 305° |
| 2026-04-23 23:18 | 53.45517 | -2.37852 | 6144 ft | 292 kts | 302° |
| 2026-04-23 23:18 | 53.46452 | -2.40876 | 6712 ft | 293 kts | 287° |
| 2026-04-23 23:19 | 53.46816 | -2.44209 | 7257 ft | 291 kts | 268° |
| 2026-04-23 23:19 | 53.46590 | -2.47557 | 7801 ft | 288 kts | 255° |
| 2026-04-23 23:19 | 53.46209 | -2.50864 | 8347 ft | 289 kts | 256° |
| 2026-04-23 23:19 | 53.45833 | -2.54183 | 8904 ft | 291 kts | 255° |
| 2026-04-23 23:20 | 53.45456 | -2.57526 | 9480 ft | 293 kts | 257° |
| 2026-04-23 23:20 | 53.45079 | -2.60912 | 10439 ft | 296 kts | 256° |
| 2026-04-23 23:20 | 53.44692 | -2.64398 | 10974 ft | 316 kts | 257° |
| 2026-04-23 23:20 | 53.44278 | -2.68119 | 11510 ft | 331 kts | 257° |
| 2026-04-23 23:21 | 53.43860 | -2.71942 | 12321 ft | 336 kts | 257° |
| 2026-04-23 23:21 | 53.43439 | -2.75814 | 13198 ft | 339 kts | 257° |
| 2026-04-23 23:21 | 53.43011 | -2.79719 | 14067 ft | 342 kts | 257° |
| 2026-04-23 23:21 | 53.42571 | -2.83665 | 14848 ft | 346 kts | 257° |
| 2026-04-23 23:22 | 53.42124 | -2.87644 | 15581 ft | 350 kts | 256° |
| 2026-04-23 23:22 | 53.41672 | -2.91671 | 16310 ft | 353 kts | 257° |
| 2026-04-23 23:22 | 53.41213 | -2.95741 | 17043 ft | 357 kts | 258° |
| 2026-04-23 23:22 | 53.40745 | -2.99845 | 17772 ft | 360 kts | 258° |
| 2026-04-23 23:23 | 53.40268 | -3.03996 | 18280 ft | 364 kts | 258° |
| 2026-04-23 23:23 | 53.39937 | -3.08147 | 18410 ft | 363 kts | 268° |
| 2026-04-23 23:23 | 53.40065 | -3.10947 | 18431 ft | 352 kts | 279° |
| 2026-04-23 23:23 | 53.40770 | -3.14785 | 18428 ft | 342 kts | 295° |
| 2026-04-23 23:24 | 53.42527 | -3.19098 | 18424 ft | 339 kts | 313° |
| 2026-04-23 23:24 | 53.44180 | -3.21918 | 18415 ft | 339 kts | 314° |
| 2026-04-23 23:24 | 53.45833 | -3.24734 | 18415 ft | 339 kts | 314° |
| 2026-04-23 23:24 | 53.47491 | -3.27560 | 18415 ft | 340 kts | 314° |
| 2026-04-23 23:25 | 53.49149 | -3.30390 | 18416 ft | 340 kts | 314° |
| 2026-04-23 23:25 | 53.50268 | -3.32302 | 18412 ft | 339 kts | 314° |
| 2026-04-23 23:25 | 53.51923 | -3.35129 | 18412 ft | 339 kts | 314° |
| 2026-04-23 23:25 | 53.53572 | -3.37956 | 18412 ft | 339 kts | 314° |
| 2026-04-23 23:26 | 53.55221 | -3.40792 | 18405 ft | 339 kts | 314° |
| 2026-04-23 23:26 | 53.56868 | -3.43633 | 18409 ft | 339 kts | 314° |
| 2026-04-23 23:26 | 53.58387 | -3.46597 | 18409 ft | 339 kts | 305° |
| 2026-04-23 23:26 | 53.59741 | -3.49839 | 18413 ft | 338 kts | 305° |
| 2026-04-23 23:27 | 53.61098 | -3.53074 | 18311 ft | 336 kts | 304° |
| 2026-04-23 23:27 | 53.62439 | -3.56261 | 18044 ft | 332 kts | 305° |
| 2026-04-23 23:27 | 53.63776 | -3.59428 | 17772 ft | 331 kts | 304° |
| 2026-04-23 23:27 | 53.65106 | -3.62576 | 17503 ft | 329 kts | 305° |
| 2026-04-23 23:28 | 53.66429 | -3.65720 | 17252 ft | 329 kts | 304° |
| 2026-04-23 23:28 | 53.67750 | -3.68870 | 16992 ft | 329 kts | 304° |
| 2026-04-23 23:28 | 53.69072 | -3.72029 | 16738 ft | 331 kts | 304° |
| 2026-04-23 23:28 | 53.70397 | -3.75199 | 16475 ft | 329 kts | 304° |
| 2026-04-23 23:29 | 53.71713 | -3.78356 | 16220 ft | 329 kts | 303° |
| 2026-04-23 23:29 | 53.73027 | -3.81519 | 15968 ft | 329 kts | 303° |
| 2026-04-23 23:29 | 53.74339 | -3.84679 | 15719 ft | 329 kts | 303° |
| 2026-04-23 23:29 | 53.75650 | -3.87844 | 15472 ft | 329 kts | 303° |
| 2026-04-23 23:30 | 53.76962 | -3.91008 | 15221 ft | 329 kts | 303° |
| 2026-04-23 23:30 | 53.78264 | -3.94147 | 14975 ft | 324 kts | 303° |
| 2026-04-23 23:30 | 53.79553 | -3.97263 | 14618 ft | 323 kts | 304° |
| 2026-04-23 23:30 | 53.80842 | -4.00384 | 14250 ft | 323 kts | 303° |
| 2026-04-23 23:31 | 53.82129 | -4.03500 | 13851 ft | 323 kts | 304° |
| 2026-04-23 23:31 | 53.83394 | -4.06565 | 13472 ft | 321 kts | 303° |
| 2026-04-23 23:31 | 53.84669 | -4.09661 | 13099 ft | 320 kts | 303° |
| 2026-04-23 23:31 | 53.85934 | -4.12745 | 12728 ft | 319 kts | 303° |
| 2026-04-23 23:32 | 53.87198 | -4.15825 | 12344 ft | 317 kts | 303° |
| 2026-04-23 23:32 | 53.88453 | -4.18887 | 11974 ft | 316 kts | 303° |
| 2026-04-23 23:32 | 53.89703 | -4.21944 | 11586 ft | 315 kts | 303° |
| 2026-04-23 23:32 | 53.90946 | -4.24991 | 11195 ft | 314 kts | 303° |
| 2026-04-23 23:33 | 53.92182 | -4.28029 | 10806 ft | 312 kts | 303° |
| 2026-04-23 23:33 | 53.93418 | -4.31060 | 10408 ft | 311 kts | 303° |
| 2026-04-23 23:33 | 53.94668 | -4.34021 | 10161 ft | 305 kts | 306° |
| 2026-04-23 23:33 | 53.95966 | -4.36839 | 9744 ft | 304 kts | 308° |
| 2026-04-23 23:34 | 53.97298 | -4.39609 | 9181 ft | 300 kts | 308° |
| 2026-04-23 23:34 | 53.98610 | -4.42305 | 8754 ft | 291 kts | 308° |
| 2026-04-23 23:34 | 53.99878 | -4.44918 | 8347 ft | 282 kts | 308° |
| 2026-04-23 23:34 | 54.01101 | -4.47456 | 7955 ft | 273 kts | 308° |
| 2026-04-23 23:35 | 54.02259 | -4.49884 | 7803 ft | 256 kts | 307° |
| 2026-04-23 23:35 | 54.03354 | -4.52197 | 7687 ft | 246 kts | 307° |
| 2026-04-23 23:35 | 54.04408 | -4.54431 | 7520 ft | 240 kts | 307° |
| 2026-04-23 23:35 | 54.05448 | -4.56643 | 7247 ft | 239 kts | 307° |
| 2026-04-23 23:36 | 54.06323 | -4.59018 | 7000 ft | 234 kts | 290° |
| 2026-04-23 23:36 | 54.06703 | -4.61641 | 6857 ft | 223 kts | 271° |
| 2026-04-23 23:36 | 54.06616 | -4.64192 | 6729 ft | 210 kts | 252° |
| 2026-04-23 23:36 | 54.06138 | -4.66458 | 6588 ft | 197 kts | 237° |
| 2026-04-23 23:37 | 54.05382 | -4.68341 | 6321 ft | 192 kts | 226° |
| 2026-04-23 23:37 | 54.04569 | -4.70122 | 5969 ft | 194 kts | 227° |
| 2026-04-23 23:37 | 54.03745 | -4.71933 | 5662 ft | 193 kts | 227° |
| 2026-04-23 23:37 | 54.02938 | -4.73708 | 5503 ft | 185 kts | 227° |
| 2026-04-23 23:38 | 54.02151 | -4.75437 | 5151 ft | 189 kts | 227° |
| 2026-04-23 23:38 | 54.01320 | -4.77250 | 4627 ft | 200 kts | 227° |
| 2026-04-23 23:38 | 54.00449 | -4.79153 | 4138 ft | 205 kts | 227° |
| 2026-04-23 23:38 | 53.99599 | -4.81027 | 3724 ft | 196 kts | 227° |
| 2026-04-23 23:39 | 53.98885 | -4.82884 | 3282 ft | 182 kts | 240° |
| 2026-04-23 23:39 | 53.98560 | -4.84960 | 3114 ft | 183 kts | 261° |
| 2026-04-23 23:39 | 53.98641 | -4.87112 | 3036 ft | 184 kts | 282° |
| 2026-04-23 23:39 | 53.99125 | -4.89105 | 2985 ft | 183 kts | 302° |
| 2026-04-23 23:40 | 53.99955 | -4.90733 | 2936 ft | 182 kts | 322° |
| 2026-04-23 23:40 | 54.01034 | -4.91809 | 2896 ft | 178 kts | 343° |
| 2026-04-23 23:40 | 54.02225 | -4.92234 | 2857 ft | 173 kts | 2° |
| 2026-04-23 23:40 | 54.03400 | -4.92031 | 2821 ft | 168 kts | 20° |
| 2026-04-23 23:41 | 54.04453 | -4.91270 | 2787 ft | 163 kts | 37° |
| 2026-04-23 23:41 | 54.05309 | -4.90060 | 2757 ft | 158 kts | 53° |
| 2026-04-23 23:41 | 54.05889 | -4.88628 | 2707 ft | 135 kts | 68° |
| 2026-04-23 23:41 | 54.06156 | -4.87212 | 2676 ft | 124 kts | 82° |
| 2026-04-23 23:42 | 54.06323 | -4.85765 | 2645 ft | 122 kts | 84° |
| 2026-04-23 23:42 | 54.06462 | -4.84365 | 2625 ft | 121 kts | 85° |
| 2026-04-23 23:42 | 54.06589 | -4.82956 | 2586 ft | 121 kts | 86° |
| 2026-04-23 23:42 | 54.06711 | -4.81543 | 2481 ft | 121 kts | 85° |
| 2026-04-23 23:43 | 54.06828 | -4.80131 | 2327 ft | 120 kts | 85° |
| 2026-04-23 23:43 | 54.06943 | -4.78724 | 2157 ft | 119 kts | 86° |
| 2026-04-23 23:43 | 54.07055 | -4.77325 | 1978 ft | 120 kts | 86° |
| 2026-04-23 23:43 | 54.07168 | -4.75921 | 1792 ft | 119 kts | 86° |
| 2026-04-23 23:44 | 54.07278 | -4.74533 | 1603 ft | 118 kts | 86° |
| 2026-04-23 23:44 | 54.07388 | -4.73152 | 1406 ft | 117 kts | 86° |
| 2026-04-23 23:44 | 54.07497 | -4.71779 | 1228 ft | 117 kts | 86° |
| 2026-04-23 23:44 | 54.07605 | -4.70413 | 1042 ft | 116 kts | 85° |
| 2026-04-23 23:45 | 54.07682 | -4.69039 | 833 ft | 117 kts | 91° |
| 2026-04-23 23:45 | 54.07678 | -4.67662 | 636 ft | 116 kts | 90° |
| 2026-04-23 23:45 | 54.07825 | -4.66294 | 378 ft | 119 kts | 77° |
| 2026-04-23 23:45 | 54.08012 | -4.64951 | 202 ft | 116 kts | 79° |
| 2026-04-23 23:46 | 54.08164 | -4.63609 | 70 ft | 115 kts | 78° |
| 2026-04-23 23:46 | 54.08310 | -4.62432 | 44 ft | 70 kts | 76° |
| 2026-04-23 23:46 | 54.08394 | -4.61840 | 40 ft | 41 kts | 77° |
| 2026-04-23 23:46 | 54.08444 | -4.61457 | 41 ft | 22 kts | 69° |
| 2026-04-23 23:47 | 54.08521 | -4.61483 | 43 ft | 13 kts | 307° |
| 2026-04-23 23:47 | 54.08540 | -4.61633 | 42 ft | 14 kts | 276° |
| 2026-04-23 23:47 | 54.08550 | -4.61800 | 43 ft | 14 kts | 276° |
| 2026-04-23 23:47 | 54.08543 | -4.61962 | 46 ft | 13 kts | 258° |
| 2026-04-23 23:48 | 54.08523 | -4.62119 | 47 ft | 14 kts | 257° |
| 2026-04-23 23:48 | 54.08502 | -4.62285 | 49 ft | 14 kts | 258° |
| 2026-04-23 23:48 | 54.08481 | -4.62460 | 49 ft | 17 kts | 258° |
| 2026-04-23 23:48 | 54.08452 | -4.62687 | 44 ft | 22 kts | 258° |
| 2026-04-23 23:49 | 54.08418 | -4.62948 | 41 ft | 1 kts | 259° |
| 2026-04-23 23:49 | 54.08424 | -4.62969 | 43 ft | 3 kts | 307° |
| 2026-04-23 23:49 | 54.08454 | -4.62994 | 40 ft | 7 kts | 346° |
| 2026-04-23 23:50 | 54.08511 | -4.63014 | 44 ft | 10 kts | 348° |
| 2026-04-23 23:50 | 54.08576 | -4.63043 | 46 ft | 10 kts | 327° |
| 2026-04-23 23:50 | 54.08619 | -4.63117 | 46 ft | 7 kts | 314° |
| 2026-04-23 23:50 | 54.08646 | -4.63165 | 46 ft | 5 kts | 314° |
| 2026-04-23 23:51 | 54.08659 | -4.63197 | 46 ft | 3 kts | 292° |
| 2026-04-23 23:51 | 54.08658 | -4.63210 | 46 ft | 0 kts | 257° |
| 2026-04-23 23:51 | 54.08656 | -4.63214 | 46 ft | 2 kts | 245° |
| 2026-04-23 23:51 | 54.08644 | -4.63239 | 44 ft | 3 kts | 226° |
| 2026-04-23 23:52 | 54.08634 | -4.63259 | 46 ft | 2 kts | 226° |
| 2026-04-23 23:52 | 54.08629 | -4.63266 | 46 ft | 0 kts | 225° |